Dades meteomassalio
Diari Summary for Maig 1, 2017 Units:  Metric    English   Both
« Previous Day
Next Day »
Diari Semanal Mensual Anual Personalitzat
  Maxima: Minima: Mijana:
Temperatura: -17.8 °C -14.8 °C -11.1 °C
Rosada: -17.8 °C -18.9 °C -16.4 °C
Humitat: Humidity % 26 % 56 %
Velocitat del vent: 0 km/h 0 km/h 21.7 km/h
Racha vent: 0 km/h - -
Vent:- - WNW
Pressio: 0 hPa 34303.6 hPa -
Pluja: 0 mm    
Historical Graphs
 
 
Tabular Data for Maig 1, 2017
Time Temperature Dew Point Pressure Wind Wind Speed Wind Gust Humidity Rainfall Rate (Hourly) solar Conditions
-17.8 °C -17.8 °C 0 hPa Calm     Humidity % 0 mm SolarRadiationWatts/m^2 W/m2 Conditions
00:01 -11.4 °C -13.4 °C 34303.6 hPa Calm     79 % 0 mm 0.0 W/m2 RA
00:06 -11.4 °C -13.4 °C 34303.6 hPa Calm     79 % 0 mm 0.0 W/m2 CLR
00:11 -11.4 °C -13.4 °C 34303.6 hPa Calm     79 % 0 mm 0.0 W/m2 CLR
00:16 -11.4 °C -13.4 °C 34313.7 hPa Calm     79 % 0 mm 0.0 W/m2 CLR
00:21 -11.5 °C -13.3 °C 34313.7 hPa Calm     80 % 0 mm 0.0 W/m2 CLR
00:26 -11.6 °C -13.4 °C 34327.3 hPa Calm     80 % 0 mm 0.0 W/m2 CLR
00:31 -11.6 °C -13.3 °C 34327.3 hPa Calm     81 % 0 mm 0.0 W/m2 CLR
00:36 -11.6 °C -13.3 °C 34327.3 hPa Calm     81 % 0 mm 0.0 W/m2 CLR
00:41 -11.6 °C -13.2 °C 34327.3 hPa Calm     82 % 0 mm 0.0 W/m2 CLR
00:42 -11.6 °C -13.2 °C 34327.3 hPa Calm     82 % 0 mm 0.0 W/m2 CLR
00:47 -11.6 °C -13.1 °C 34337.4 hPa Calm     83 % 0 mm 0.0 W/m2 CLR
00:52 -11.6 °C -13.3 °C 34337.4 hPa Calm     82 % 0 mm 0.0 W/m2 CLR
00:57 -11.7 °C -13.3 °C 34337.4 hPa Calm     82 % 0 mm 0.0 W/m2 CLR
01:02 -11.7 °C -13.6 °C 34337.4 hPa Calm     80 % 0 mm 0.0 W/m2 CLR
01:07 -11.7 °C -13.7 °C 34337.4 hPa Calm     79 % 0 mm 0.0 W/m2 CLR
01:12 -11.8 °C -13.7 °C 34347.6 hPa Calm     79 % 0 mm 0.0 W/m2 CLR
01:17 -11.8 °C -13.9 °C 34347.6 hPa NW 25.9 km/h 25.9 km/h 78 % 0 mm 0.0 W/m2 CLR
01:22 -11.9 °C -14.1 °C 34347.6 hPa NNW 29.8 km/h 29.8 km/h 76 % 0 mm 0.0 W/m2 CLR
01:27 -11.9 °C -14.1 °C 34361.1 hPa NNW 29.8 km/h 29.8 km/h 76 % 0 mm 0.0 W/m2 CLR
01:32 -11.9 °C -14.2 °C 34361.1 hPa NNW 38.8 km/h 38.8 km/h 76 % 0 mm 0.0 W/m2 CLR
01:37 -12 °C -14.2 °C 34371.3 hPa NW 44.7 km/h 44.7 km/h 76 % 0 mm 0.0 W/m2 CLR
01:42 -12 °C -14.1 °C 34371.3 hPa NW 23.8 km/h 23.8 km/h 77 % 0 mm 0.0 W/m2 CLR
01:47 -12.1 °C -14.2 °C 34371.3 hPa NW 38.8 km/h 38.8 km/h 77 % 0 mm 0.0 W/m2 CLR
01:52 -12.1 °C -14.2 °C 34371.3 hPa NW 29.8 km/h 29.8 km/h 78 % 0 mm 0.0 W/m2 CLR
01:57 -12.2 °C -14.2 °C 34384.8 hPa NW 26.9 km/h 26.9 km/h 79 % 0 mm 0.0 W/m2 CLR
02:02 -12.3 °C -14.1 °C 34384.8 hPa NW 32.8 km/h 32.8 km/h 80 % 0 mm 0.0 W/m2 CLR
02:07 -12.3 °C -14.1 °C 34384.8 hPa WNW 38.8 km/h 38.8 km/h 81 % 0 mm 0.0 W/m2 CLR
02:12 -12.4 °C -14.1 °C 34384.8 hPa NW 29.8 km/h 29.8 km/h 81 % 0 mm 0.0 W/m2 CLR
02:17 -12.6 °C -14.3 °C 34395 hPa WNW 32.8 km/h 32.8 km/h 81 % 0 mm 0.0 W/m2 CLR
02:22 -12.6 °C -14.3 °C 34395 hPa NW 26.9 km/h 26.9 km/h 81 % 0 mm 0.0 W/m2 CLR
02:27 -12.7 °C -14.4 °C 34395 hPa WNW 23.8 km/h 23.8 km/h 81 % 0 mm 0.0 W/m2 CLR
02:32 -12.7 °C -14.6 °C 34395 hPa NW 26.9 km/h 26.9 km/h 80 % 0 mm 0.0 W/m2 CLR
02:37 -12.8 °C -14.6 °C 34395 hPa NW 32.8 km/h 32.8 km/h 80 % 0 mm 0.0 W/m2 CLR
02:42 -12.9 °C -14.8 °C 34395 hPa WNW 41.7 km/h 41.7 km/h 79 % 0 mm 0.0 W/m2 CLR
02:47 -12.9 °C -14.8 °C 34395 hPa WNW 25.9 km/h 25.9 km/h 79 % 0 mm 0.0 W/m2 CLR
02:52 -13 °C -14.8 °C 34395 hPa WNW 23.8 km/h 23.8 km/h 80 % 0 mm 0.0 W/m2 CLR
02:57 -13.1 °C -14.9 °C 34405.1 hPa WNW 29.8 km/h 29.8 km/h 80 % 0 mm 0.0 W/m2 CLR
03:02 -13.2 °C -15 °C 34405.1 hPa WNW 20.8 km/h 20.8 km/h 80 % 0 mm 0.0 W/m2 CLR
03:07 -13.3 °C -15.1 °C 34405.1 hPa NW 20.9 km/h 20.9 km/h 80 % 0 mm 0.0 W/m2 CLR
03:12 -13.4 °C -15.2 °C 34405.1 hPa West 32.8 km/h 32.8 km/h 80 % 0 mm 0.0 W/m2 CLR
03:17 -13.4 °C -15.3 °C 34405.1 hPa West 23.8 km/h 23.8 km/h 79 % 0 mm 0.0 W/m2 CLR
03:22 -13.4 °C -15.3 °C 34418.7 hPa NW 26.9 km/h 26.9 km/h 79 % 0 mm 0.0 W/m2 CLR
03:27 -13.5 °C -15.4 °C 34418.7 hPa WNW 29.8 km/h 29.8 km/h 79 % 0 mm 0.0 W/m2 CLR
03:32 -13.6 °C -15.5 °C 34418.7 hPa WNW 29.8 km/h 29.8 km/h 79 % 0 mm 0.0 W/m2 CLR
03:37 -13.7 °C -15.6 °C 34418.7 hPa West 26.9 km/h 26.9 km/h 79 % 0 mm 0.0 W/m2 CLR
03:42 -13.7 °C -15.5 °C 34418.7 hPa NW 23.8 km/h 23.8 km/h 80 % 0 mm 0.0 W/m2 CLR
03:47 -13.8 °C -15.6 °C 34418.7 hPa NW 20.9 km/h 20.9 km/h 80 % 0 mm 0.0 W/m2 CLR
03:52 -13.8 °C -15.7 °C 34428.8 hPa WNW 26.9 km/h 26.9 km/h 80 % 0 mm 0.0 W/m2 CLR
03:57 -13.9 °C -15.6 °C 34428.8 hPa NW 23.8 km/h 23.8 km/h 81 % 0 mm 0.0 W/m2 CLR
04:02 -14 °C -15.7 °C 34428.8 hPa NW 17.9 km/h 17.9 km/h 81 % 0 mm 0.0 W/m2 CLR
04:08 -14 °C -15.7 °C 34428.8 hPa WNW 15.6 km/h 15.8 km/h 81 % 0 mm 0.0 W/m2 CLR
04:13 -14.1 °C -15.7 °C 34428.8 hPa WNW 15 km/h 15 km/h 81 % 0 mm 0.0 W/m2 CLR
04:18 -14.1 °C -15.8 °C 34442.4 hPa Calm     81 % 0 mm 0.0 W/m2 CLR
04:23 -14.1 °C -15.8 °C 34442.4 hPa Calm     81 % 0 mm 0.0 W/m2 CLR
04:28 -14.1 °C -15.7 °C 34442.4 hPa Calm     81 % 0 mm 0.0 W/m2 CLR
04:33 -14 °C -15.8 °C 34452.6 hPa Calm     80 % 0 mm 0.0 W/m2 CLR
04:38 -13.9 °C -15.7 °C 34452.6 hPa West 15.6 km/h 15.6 km/h 80 % 0 mm 0.0 W/m2 CLR
04:43 -13.9 °C -15.7 °C 34452.6 hPa WSW 18.2 km/h 18.2 km/h 80 % 0 mm 0.0 W/m2 CLR
04:48 -13.9 °C -15.7 °C 34452.6 hPa WNW 20.9 km/h 20.9 km/h 80 % 0 mm 0.0 W/m2 CLR
04:53 -14 °C -15.8 °C 34462.7 hPa WNW 17.9 km/h 17.9 km/h 80 % 0 mm 0.0 W/m2 CLR
04:58 -14.1 °C -15.8 °C 34462.7 hPa WNW 15 km/h 15 km/h 80 % 0 mm 0.0 W/m2 CLR
05:03 -14.1 °C -15.8 °C 34462.7 hPa WNW 9 km/h 9 km/h 81 % 0 mm 0.0 W/m2 CLR
05:08 -14.2 °C -15.9 °C 34462.7 hPa NW 7.7 km/h 7.7 km/h 81 % 0 mm 0.0 W/m2 CLR
05:13 -14.3 °C -15.8 °C 34462.7 hPa Calm     82 % 0 mm 0.0 W/m2 CLR
05:18 -14.3 °C -15.9 °C 34462.7 hPa Calm     82 % 0 mm 0.0 W/m2 CLR
05:23 -14.4 °C -15.9 °C 34462.7 hPa Calm     82 % 0 mm 0.0 W/m2 CLR
05:28 -14.5 °C -16 °C 34462.7 hPa Calm     83 % 0 mm 0.0 W/m2 CLR
05:33 -14.6 °C -15.9 °C 34462.7 hPa Calm     84 % 0 mm 0.0 W/m2 CLR
05:38 -14.7 °C -16.1 °C 34462.7 hPa Calm     84 % 0 mm 0.0 W/m2 CLR
05:43 -14.6 °C -16 °C 34476.3 hPa Calm     84 % 0 mm 0.0 W/m2 CLR
05:48 -14.5 °C -16 °C 34476.3 hPa Calm     83 % 0 mm 0.0 W/m2 CLR
05:53 -14.6 °C -16 °C 34476.3 hPa Calm     83 % 0 mm 0.0 W/m2 CLR
05:58 -14.6 °C -16 °C 34476.3 hPa Calm     83 % 0 mm 0.0 W/m2 CLR
06:03 -14.7 °C -16.1 °C 34476.3 hPa SW 9 km/h 9 km/h 84 % 0 mm 0.0 W/m2 CLR
06:08 -14.8 °C -16.1 °C 34486.4 hPa WSW 17.9 km/h 17.9 km/h 85 % 0 mm 0.0 W/m2 CLR
06:13 -14.7 °C -16 °C 34486.4 hPa SW 17.9 km/h 17.9 km/h 85 % 0 mm 0.0 W/m2 CLR
06:18 -14.7 °C -16 °C 34486.4 hPa WSW 17.9 km/h 17.9 km/h 85 % 0 mm 0.0 W/m2 CLR
06:23 -14.7 °C -15.9 °C 34486.4 hPa WSW 11.9 km/h 11.9 km/h 85 % 0 mm 0.0 W/m2 CLR
06:28 -14.6 °C -15.9 °C 34496.6 hPa West 17.9 km/h 17.9 km/h 85 % 0 mm 0.0 W/m2 CLR
06:33 -14.6 °C -15.9 °C 34496.6 hPa West 17.9 km/h 17.9 km/h 84 % 0 mm 0.0 W/m2 CLR
06:38 -14.4 °C -15.9 °C 34496.6 hPa WSW 9 km/h 9 km/h 83 % 0 mm 0.0 W/m2 CLR
06:43 -14.3 °C -15.9 °C 34496.6 hPa West 20.9 km/h 20.9 km/h 82 % 0 mm 0.0 W/m2 CLR
06:48 -14.2 °C -15.9 °C 34496.6 hPa West 20.9 km/h 20.9 km/h 81 % 0 mm 0.0 W/m2 OVC
06:53 -14.2 °C -15.9 °C 34496.6 hPa WNW 20.9 km/h 20.9 km/h 80 % 0 mm 0.0 W/m2 OVC
06:58 -14.1 °C -15.9 °C 34496.6 hPa West 20.9 km/h 20.9 km/h 80 % 0 mm 5.0 W/m2 OVC
07:03 -14.1 °C -16 °C 34510.1 hPa West 23.8 km/h 23.8 km/h 78 % 0 mm 7.0 W/m2 BKN
07:08 -14.1 °C -16.1 °C 34510.1 hPa West 15 km/h 15 km/h 78 % 0 mm 11.0 W/m2 BKN
07:13 -14.1 °C -15.9 °C 34510.1 hPa West 17.9 km/h 17.9 km/h 79 % 0 mm 14.0 W/m2 BKN
07:18 -14.1 °C -16 °C 34510.1 hPa Calm   2.1 km/h 78 % 0 mm 18.0 W/m2 BKN
07:23 -14 °C -15.9 °C 34510.1 hPa West 20.8 km/h 20.8 km/h 78 % 0 mm 23.0 W/m2 BKN
07:28 -13.9 °C -15.9 °C 34510.1 hPa Calm     78 % 0 mm 30.0 W/m2 BKN
07:33 -13.8 °C -15.9 °C 34510.1 hPa WNW 2.6 km/h 2.6 km/h 77 % 0 mm 47.0 W/m2 BKN
07:38 -13.8 °C -15.9 °C 34520.3 hPa West 6 km/h 6 km/h 77 % 0 mm 44.0 W/m2 SCT
07:43 -13.7 °C -15.9 °C 34520.3 hPa WNW 29.8 km/h 29.8 km/h 76 % 0 mm 51.0 W/m2 SCT
07:48 -13.6 °C -15.9 °C 34520.3 hPa WNW 15 km/h 15 km/h 75 % 0 mm 67.0 W/m2 FEW
07:53 -13.5 °C -15.9 °C 34520.3 hPa West 29.8 km/h 29.8 km/h 74 % 0 mm 79.0 W/m2 FEW
07:58 -13.4 °C -15.9 °C 34520.3 hPa WNW 26.9 km/h 26.9 km/h 74 % 0 mm 98.0 W/m2 FEW
08:03 -13.4 °C -15.8 °C 34520.3 hPa West 23.8 km/h 23.8 km/h 74 % 0 mm 114.0 W/m2 CLR
08:08 -13.4 °C -15.9 °C 34520.3 hPa West 29.8 km/h 29.8 km/h 73 % 0 mm 132.0 W/m2 CLR
08:13 -13.3 °C -15.7 °C 34533.8 hPa West 29.8 km/h 29.8 km/h 74 % 0 mm 149.0 W/m2 CLR
08:18 -13.3 °C -15.8 °C 34533.8 hPa West 29.8 km/h 29.8 km/h 73 % 0 mm 172.0 W/m2 CLR
08:19 -13.3 °C -15.9 °C 34533.8 hPa West 29.8 km/h 29.8 km/h 73 % 0 mm 172.0 W/m2 CLR
08:24 -13.2 °C -15.8 °C 34533.8 hPa West 23.8 km/h 23.8 km/h 73 % 0 mm 192.0 W/m2 CLR
08:29 -13.2 °C -15.7 °C 34533.8 hPa West 29.8 km/h 29.8 km/h 73 % 0 mm 216.0 W/m2 CLR
08:34 -13.1 °C -15.6 °C 34533.8 hPa WNW 17.9 km/h 17.9 km/h 73 % 0 mm 236.0 W/m2 CLR
08:39 -13 °C -15.6 °C 34533.8 hPa West 32.8 km/h 32.8 km/h 73 % 0 mm 236.0 W/m2 CLR
08:44 -12.9 °C -15.6 °C 34533.8 hPa West 23.8 km/h 23.8 km/h 72 % 0 mm 269.0 W/m2 CLR
08:49 -12.9 °C -15.5 °C 34533.8 hPa WNW 23.8 km/h 23.8 km/h 72 % 0 mm 244.0 W/m2 CLR
08:54 -12.8 °C -15.4 °C 34544 hPa WNW 29.8 km/h 29.8 km/h 72 % 0 mm 302.0 W/m2 CLR
08:59 -12.8 °C -15.7 °C 34544 hPa WNW 38.8 km/h 38.8 km/h 70 % 0 mm 272.0 W/m2 CLR
09:04 -12.8 °C -15.6 °C 34544 hPa WNW 35.7 km/h 35.7 km/h 71 % 0 mm 338.0 W/m2 CLR
09:09 -12.7 °C -15.6 °C 34544 hPa NW 38.8 km/h 38.8 km/h 70 % 0 mm 355.0 W/m2 CLR
09:14 -12.7 °C -15.6 °C 34544 hPa NW 29.8 km/h 29.8 km/h 70 % 0 mm 371.0 W/m2 CLR
09:19 -12.7 °C -15.7 °C 34554.1 hPa WNW 35.7 km/h 35.7 km/h 69 % 0 mm 387.0 W/m2 CLR
09:24 -12.6 °C -15.7 °C 34554.1 hPa NW 35.7 km/h 35.7 km/h 68 % 0 mm 202.0 W/m2 CLR
09:29 -12.5 °C -15.6 °C 34554.1 hPa NW 44.7 km/h 44.7 km/h 68 % 0 mm 142.0 W/m2 CLR
09:34 -12.6 °C -15.7 °C 34554.1 hPa WNW 47.6 km/h 47.6 km/h 68 % 0 mm 438.0 W/m2 CLR
09:39 -12.4 °C -15.6 °C 34554.1 hPa WNW 41.7 km/h 41.7 km/h 68 % 0 mm 464.0 W/m2 CLR
09:44 -12.3 °C -15.3 °C 34544 hPa WNW 44.7 km/h 44.7 km/h 69 % 0 mm 473.0 W/m2 CLR
09:49 -12.3 °C -15.6 °C 34544 hPa WNW 50.7 km/h 50.7 km/h 67 % 0 mm 490.0 W/m2 CLR
09:54 -12.3 °C -15.5 °C 34544 hPa WNW 47.6 km/h 47.6 km/h 67 % 0 mm 508.0 W/m2 CLR
09:59 -12.1 °C -15.4 °C 34544 hPa WNW 41.7 km/h 41.7 km/h 66 % 0 mm 520.0 W/m2 CLR
10:04 -12.1 °C -15.4 °C 34544 hPa WNW 38.8 km/h 38.8 km/h 66 % 0 mm 504.0 W/m2 CLR
10:09 -12.1 °C -15.5 °C 34544 hPa NW 56.6 km/h 56.6 km/h 65 % 0 mm 515.0 W/m2 CLR
10:14 -12.1 °C -15.5 °C 34554.1 hPa NW 56.6 km/h 56.6 km/h 65 % 0 mm 538.0 W/m2 CLR
10:20 -11.9 °C -15.6 °C 34554.1 hPa NW 35.7 km/h 35.7 km/h 64 % 0 mm 580.0 W/m2 CLR
10:25 -11.7 °C -15.4 °C 34554.1 hPa NW 41.4 km/h 41.4 km/h 64 % 0 mm 598.0 W/m2 CLR
10:30 -11.6 °C -15.3 °C 34554.1 hPa NW 31.1 km/h 31.1 km/h 64 % 0 mm 612.0 W/m2 CLR
10:35 -11.6 °C -15.7 °C 34554.1 hPa NNW 50.7 km/h 50.7 km/h 61 % 0 mm 626.0 W/m2 CLR
10:40 -11.5 °C -15.6 °C 34554.1 hPa North 32.8 km/h 32.8 km/h 61 % 0 mm 642.0 W/m2 CLR
10:45 -11.4 °C -15.6 °C 34554.1 hPa NNW 31.1 km/h 32.3 km/h 60 % 0 mm 652.0 W/m2 CLR
10:50 -11.4 °C -15.6 °C 34554.1 hPa NW 35.7 km/h 35.7 km/h 60 % 0 mm 666.0 W/m2 CLR
10:55 -11.3 °C -15.6 °C 34554.1 hPa WNW 32.8 km/h 32.8 km/h 59 % 0 mm 684.0 W/m2 CLR
11:00 -11.2 °C -15.8 °C 34554.1 hPa WNW 41.7 km/h 41.7 km/h 57 % 0 mm 701.0 W/m2 CLR
11:05 -11.2 °C -15.8 °C 34554.1 hPa WNW 50.7 km/h 50.7 km/h 57 % 0 mm 710.0 W/m2 CLR
11:10 -11.1 °C -15.7 °C 34554.1 hPa NW 29.8 km/h 29.8 km/h 57 % 0 mm 708.0 W/m2 CLR
11:15 -10.9 °C -15.8 °C 34554.1 hPa NW 44.7 km/h 44.7 km/h 55 % 0 mm 735.0 W/m2 CLR
11:20 -10.9 °C -15.9 °C 34544 hPa NW 50.7 km/h 50.7 km/h 54 % 0 mm 745.0 W/m2 CLR
11:25 -10.9 °C -16.1 °C 34554.1 hPa NW 47.6 km/h 47.6 km/h 53 % 0 mm 751.0 W/m2 CLR
11:30 -10.8 °C -16.3 °C 34554.1 hPa NW 47.6 km/h 47.6 km/h 51 % 0 mm 772.0 W/m2 CLR
11:35 -10.8 °C -15.7 °C 34554.1 hPa NNW 46.7 km/h 46.7 km/h 55 % 0 mm 782.0 W/m2 CLR
11:40 -10.7 °C -15.9 °C 34554.1 hPa WNW 29.8 km/h 29.8 km/h 53 % 0 mm 791.0 W/m2 CLR
11:45 -10.6 °C -16.4 °C 34554.1 hPa NNW 56.6 km/h 56.6 km/h 49 % 0 mm 795.0 W/m2 CLR
11:50 -10.6 °C -16.4 °C 34544 hPa NNW 41.7 km/h 41.7 km/h 49 % 0 mm 807.0 W/m2 CLR
11:55 -10.6 °C -16.4 °C 34544 hPa NW 38.8 km/h 38.8 km/h 49 % 0 mm 816.0 W/m2 CLR
12:00 -10.5 °C -16.5 °C 34544 hPa NW 51.8 km/h 51.8 km/h 48 % 0 mm 826.0 W/m2 CLR
12:05 -10.5 °C -16.5 °C 34544 hPa WNW 29.8 km/h 29.8 km/h 48 % 0 mm 821.0 W/m2 CLR
12:10 -10.4 °C -16.6 °C 34554.1 hPa NW 50.7 km/h 50.7 km/h 47 % 0 mm 847.0 W/m2 CLR
12:15 -10.3 °C -16.6 °C 34544 hPa WNW 57 km/h 57 km/h 46 % 0 mm 842.0 W/m2 CLR
12:20 -10.3 °C -16.8 °C 34554.1 hPa WNW 35.7 km/h 35.7 km/h 45 % 0 mm 856.0 W/m2 CLR
12:25 -10.2 °C -16.4 °C 34544 hPa NNW 44.7 km/h 44.7 km/h 47 % 0 mm 870.0 W/m2 CLR
12:30 -10.2 °C -16.7 °C 34544 hPa WNW 41.7 km/h 41.7 km/h 45 % 0 mm 879.0 W/m2 CLR
12:35 -10.1 °C -16.6 °C 34544 hPa NW 29.8 km/h 29.8 km/h 45 % 0 mm 853.0 W/m2 CLR
12:40 -9.9 °C -16.4 °C 34554.1 hPa NNW 36.2 km/h 36.2 km/h 45 % 0 mm 868.0 W/m2 CLR
12:45 -10.1 °C -17.1 °C 34554.1 hPa NNW 38.8 km/h 38.8 km/h 42 % 0 mm 881.0 W/m2 CLR
12:50 -9.9 °C -17.2 °C 34554.1 hPa NNW 57 km/h 57 km/h 41 % 0 mm 896.0 W/m2 CLR
12:55 -10.1 °C -17.1 °C 34554.1 hPa NW 44.7 km/h 44.7 km/h 42 % 0 mm 898.0 W/m2 CLR
13:00 -9.9 °C -16.7 °C 34544 hPa WNW 47.6 km/h 47.6 km/h 44 % 0 mm 896.0 W/m2 CLR
13:05 -9.8 °C -16.9 °C 34544 hPa WNW 35.7 km/h 35.7 km/h 42 % 0 mm 858.0 W/m2 CLR
13:10 -9.6 °C -17.1 °C 34544 hPa North 38.8 km/h 38.8 km/h 40 % 0 mm 918.0 W/m2 CLR
13:15 -9.6 °C -16.9 °C 34544 hPa NNW 29.8 km/h 29.8 km/h 41 % 0 mm 921.0 W/m2 CLR
13:20 -9.6 °C -17.1 °C 34544 hPa NNW 29.8 km/h 29.8 km/h 40 % 0 mm 921.0 W/m2 CLR
13:25 -9.5 °C -17.2 °C 34544 hPa North 29.8 km/h 29.8 km/h 39 % 0 mm 923.0 W/m2 CLR
13:30 -9.4 °C -16.9 °C 34544 hPa NNW 44.7 km/h 44.7 km/h 40 % 0 mm 930.0 W/m2 CLR
13:35 -9.4 °C -17.1 °C 34533.8 hPa NNW 47.6 km/h 47.6 km/h 39 % 0 mm 949.0 W/m2 CLR
13:40 -9.2 °C -16.9 °C 34533.8 hPa NNW 50.7 km/h 50.7 km/h 39 % 0 mm 933.0 W/m2 CLR
13:45 -9.3 °C -17.2 °C 34533.8 hPa NW 9 km/h 9 km/h 38 % 0 mm 928.0 W/m2 CLR
13:50 -9.3 °C -17.2 °C 34533.8 hPa NNW 38.8 km/h 38.8 km/h 38 % 0 mm 932.0 W/m2 CLR
13:55 -9.2 °C -16.9 °C 34533.8 hPa NW 38.8 km/h 38.8 km/h 39 % 0 mm 940.0 W/m2 CLR
14:00 -9.1 °C -17 °C 34533.8 hPa North 29.8 km/h 29.8 km/h 38 % 0 mm 932.0 W/m2 CLR
14:05 -9.1 °C -17.1 °C 34533.8 hPa NNW 38.8 km/h 38.8 km/h 38 % 0 mm 932.0 W/m2 CLR
14:10 -9.1 °C -17.2 °C 34533.8 hPa NNW 47.6 km/h 47.6 km/h 37 % 0 mm 928.0 W/m2 CLR
14:15 -9.1 °C -16.8 °C 34533.8 hPa NW 36.2 km/h 36.2 km/h 39 % 0 mm 926.0 W/m2 CLR
14:20 -8.9 °C -17.4 °C 34533.8 hPa North 50.7 km/h 50.7 km/h 35 % 0 mm 923.0 W/m2 CLR
14:25 -8.8 °C -17.1 °C 34533.8 hPa WNW 29.8 km/h 29.8 km/h 37 % 0 mm 926.0 W/m2 CLR
14:30 -8.8 °C -17.6 °C 34533.8 hPa NNW 47.6 km/h 47.6 km/h 34 % 0 mm 919.0 W/m2 CLR
14:35 -8.8 °C -17.3 °C 34533.8 hPa WNW 29.8 km/h 29.8 km/h 36 % 0 mm 918.0 W/m2 CLR
14:36 -8.8 °C -17.4 °C 34533.8 hPa NW 41.4 km/h 41.4 km/h 35 % 0 mm 914.0 W/m2 CLR
14:41 -8.7 °C -17.6 °C 34533.8 hPa NW 35.7 km/h 35.7 km/h 34 % 0 mm 912.0 W/m2 CLR
14:46 -8.8 °C -18.1 °C 34533.8 hPa WNW 44.7 km/h 44.7 km/h 32 % 0 mm 909.0 W/m2 CLR
14:51 -8.7 °C -17.7 °C 34533.8 hPa NW 49.2 km/h 49.2 km/h 33 % 0 mm 904.0 W/m2 CLR
14:56 -8.8 °C -17.8 °C 34533.8 hPa NNW 47.6 km/h 47.6 km/h 33 % 0 mm 900.0 W/m2 CLR
15:01 -8.7 °C -17.8 °C 34520.3 hPa NW 41.7 km/h 41.7 km/h 33 % 0 mm 893.0 W/m2 CLR
15:06 -8.6 °C -17.7 °C 34533.8 hPa NW 38.8 km/h 38.8 km/h 33 % 0 mm 886.0 W/m2 CLR
15:11 -8.6 °C -18.2 °C 34520.3 hPa NNW 50.7 km/h 50.7 km/h 31 % 0 mm 882.0 W/m2 CLR
15:16 -8.6 °C -18.1 °C 34520.3 hPa West 38.8 km/h 38.8 km/h 31 % 0 mm 879.0 W/m2 CLR
15:21 -8.5 °C -18.1 °C 34533.8 hPa NNW 41.7 km/h 41.7 km/h 31 % 0 mm 872.0 W/m2 CLR
15:26 -8.4 °C -17.8 °C 34533.8 hPa NW 35.7 km/h 35.7 km/h 32 % 0 mm 863.0 W/m2 CLR
15:31 -8.4 °C -18 °C 34533.8 hPa North 44.7 km/h 44.7 km/h 31 % 0 mm 854.0 W/m2 CLR
15:36 -8.5 °C -18.1 °C 34533.8 hPa WNW 50.7 km/h 50.7 km/h 31 % 0 mm 847.0 W/m2 CLR
15:41 -8.4 °C -18.3 °C 34533.8 hPa North 41.7 km/h 41.7 km/h 30 % 0 mm 842.0 W/m2 CLR
15:46 -8.3 °C -18.2 °C 34533.8 hPa NW 47.6 km/h 47.6 km/h 30 % 0 mm 835.0 W/m2 CLR
15:51 -8.2 °C -17.8 °C 34533.8 hPa North 41.7 km/h 41.7 km/h 31 % 0 mm 826.0 W/m2 CLR
15:56 -8.2 °C -18.1 °C 34520.3 hPa NW 29.8 km/h 32.8 km/h 30 % 0 mm 816.0 W/m2 CLR
16:01 -8.1 °C -18.2 °C 34533.8 hPa NNW 56.6 km/h 56.6 km/h 29 % 0 mm 805.0 W/m2 CLR
16:06 -8.1 °C -18.2 °C 34520.3 hPa NNW 35.7 km/h 35.7 km/h 29 % 0 mm 798.0 W/m2 CLR
16:11 -8.1 °C -17.7 °C 34520.3 hPa North 35.7 km/h 35.7 km/h 31 % 0 mm 788.0 W/m2 CLR
16:16 -7.9 °C -18.1 °C 34520.3 hPa NNW 38.8 km/h 38.8 km/h 29 % 0 mm 777.0 W/m2 CLR
16:21 -8.1 °C -18.2 °C 34520.3 hPa NNW 38.8 km/h 38.8 km/h 29 % 0 mm 766.0 W/m2 CLR
16:26 -8 °C -17.9 °C 34520.3 hPa NNW 35.7 km/h 35.7 km/h 30 % 0 mm 758.0 W/m2 CLR
16:31 -7.9 °C -18 °C 34520.3 hPa NNW 57 km/h 57 km/h 29 % 0 mm 744.0 W/m2 CLR
16:36 -8 °C -18.2 °C 34520.3 hPa NW 26.9 km/h 26.9 km/h 29 % 0 mm 733.0 W/m2 CLR
16:41 -7.9 °C -18 °C 34520.3 hPa WNW 29.8 km/h 29.8 km/h 29 % 0 mm 721.0 W/m2 CLR
16:47 -7.8 °C -18.3 °C 34520.3 hPa NNW 38.8 km/h 38.8 km/h 28 % 0 mm 710.0 W/m2 CLR
16:52 -7.8 °C -18.5 °C 34520.3 hPa WNW 36.2 km/h 36.2 km/h 27 % 0 mm 696.0 W/m2 CLR
16:57 -7.9 °C -18.8 °C 34520.3 hPa NNW 38.8 km/h 38.8 km/h 26 % 0 mm 682.0 W/m2 CLR
17:02 -7.9 °C -18.7 °C 34510.1 hPa WNW 20.9 km/h 20.9 km/h 27 % 0 mm 670.0 W/m2 CLR
17:07 -7.9 °C -18.8 °C 34520.3 hPa North 28.5 km/h 28.5 km/h 26 % 0 mm 657.0 W/m2 CLR
17:12 -7.8 °C -18.8 °C 34520.3 hPa NE 29.8 km/h 29.8 km/h 26 % 0 mm 643.0 W/m2 CLR
17:17 -7.7 °C -18.7 °C 34520.3 hPa North 38.8 km/h 38.8 km/h 26 % 0 mm 629.0 W/m2 CLR
17:22 -7.7 °C -18.8 °C 34520.3 hPa NNE 29.8 km/h 29.8 km/h 26 % 0 mm 617.0 W/m2 CLR
17:27 -7.9 °C -18.8 °C 34520.3 hPa North 35.7 km/h 35.7 km/h 26 % 0 mm 603.0 W/m2 CLR
17:32 -7.9 °C -18.7 °C 34520.3 hPa NNW 44.7 km/h 44.7 km/h 27 % 0 mm 589.0 W/m2 CLR
17:37 -7.9 °C -18.9 °C 34520.3 hPa North 9 km/h 9 km/h 26 % 0 mm 570.0 W/m2 CLR
17:42 -7.8 °C -18.6 °C 34520.3 hPa North 41.7 km/h 41.7 km/h 27 % 0 mm 557.0 W/m2 CLR
17:47 -7.8 °C -18.5 °C 34520.3 hPa NNW 29.8 km/h 29.8 km/h 27 % 0 mm 543.0 W/m2 CLR
17:52 -7.8 °C -18.5 °C 34520.3 hPa NNE 29.8 km/h 29.8 km/h 27 % 0 mm 529.0 W/m2 CLR
17:57 -7.8 °C -18.5 °C 34510.1 hPa North 20.9 km/h 20.9 km/h 27 % 0 mm 515.0 W/m2 CLR
18:02 -7.7 °C -18.8 °C 34510.1 hPa NNE 25.9 km/h 25.9 km/h 26 % 0 mm 496.0 W/m2 CLR
18:07 -7.8 °C -18.8 °C 34520.3 hPa NNW 17.9 km/h 17.9 km/h 26 % 0 mm 480.0 W/m2 CLR
18:12 -7.7 °C -18.5 °C 34520.3 hPa NE 3.1 km/h   27 % 0 mm 462.0 W/m2 CLR
18:17 -7.7 °C -18.4 °C 34510.1 hPa North 26.9 km/h 26.9 km/h 27 % 0 mm 448.0 W/m2 CLR
18:22 -7.6 °C -18.1 °C 34510.1 hPa NNE 26.9 km/h 26.9 km/h 28 % 0 mm 431.0 W/m2 CLR
18:27 -7.6 °C -18.3 °C 34510.1 hPa NNW 23.8 km/h 23.8 km/h 27 % 0 mm 417.0 W/m2 CLR
18:32 -7.6 °C -18.3 °C 34510.1 hPa NNW 23.8 km/h 23.8 km/h 27 % 0 mm 397.0 W/m2 CLR
18:37 -7.6 °C -18.4 °C 34510.1 hPa WSW 17.9 km/h 17.9 km/h 27 % 0 mm 378.0 W/m2 CLR
18:38 -7.6 °C -18.4 °C 34510.1 hPa WSW 3.1 km/h   27 % 0 mm 376.0 W/m2 CLR
18:43 -7.6 °C -18 °C 34510.1 hPa NNW 18.2 km/h 18.2 km/h 28 % 0 mm 360.0 W/m2 CLR
18:48 -7.5 °C -18.3 °C 34510.1 hPa North 6 km/h   27 % 0 mm 348.0 W/m2 CLR
18:53 -7.6 °C -18.3 °C 34510.1 hPa Calm     27 % 0 mm 329.0 W/m2 CLR
18:58 -7.4 °C -17.9 °C 34510.1 hPa Calm     28 % 0 mm 311.0 W/m2 CLR
19:03 -7.4 °C -18.2 °C 34510.1 hPa Calm     27 % 0 mm 294.0 W/m2 CLR
19:08 -7.4 °C -17.9 °C 34510.1 hPa Calm     28 % 0 mm 276.0 W/m2 CLR
19:13 -7.4 °C -17.9 °C 34510.1 hPa NNE 6 km/h 6 km/h 28 % 0 mm 260.0 W/m2 CLR
19:18 -7.4 °C -17.9 °C 34510.1 hPa Calm     28 % 0 mm 246.0 W/m2 CLR
19:23 -7.2 °C -17.7 °C 34510.1 hPa Calm     28 % 0 mm 221.0 W/m2 CLR
19:28 -7.2 °C -17.7 °C 34510.1 hPa North 9 km/h 9 km/h 28 % 0 mm 209.0 W/m2 CLR
19:33 -7.3 °C -17.8 °C 34510.1 hPa Calm     28 % 0 mm 179.0 W/m2 CLR
19:38 -7.3 °C -17.6 °C 34510.1 hPa Calm     29 % 0 mm 144.0 W/m2 CLR
19:43 -7.4 °C -17.9 °C 34520.3 hPa NE 9 km/h 9 km/h 28 % 0 mm 84.0 W/m2 CLR
19:48 -7.7 °C -17.8 °C 34520.3 hPa Calm     29 % 0 mm 76.0 W/m2 CLR
19:53 -7.8 °C -18 °C 34520.3 hPa Calm     29 % 0 mm 60.0 W/m2 FEW
19:54 -7.8 °C -18 °C 34520.3 hPa Calm     29 % 0 mm 60.0 W/m2 FEW
19:59 -8 °C -17.9 °C 34520.3 hPa Calm     30 % 0 mm 44.0 W/m2 BKN
20:04 -8.2 °C -17.8 °C 34520.3 hPa Calm     31 % 0 mm 56.0 W/m2 SCT
20:09 -8.3 °C -17.9 °C 34520.3 hPa Calm     31 % 0 mm 39.0 W/m2 BKN
20:14 -8.4 °C -17.8 °C 34520.3 hPa Calm     32 % 0 mm 26.0 W/m2 BKN
20:19 -8.5 °C -17.8 °C 34520.3 hPa Calm     32 % 0 mm 33.0 W/m2 BKN
20:24 -8.5 °C -17.8 °C 34520.3 hPa Calm     32 % 0 mm 33.0 W/m2 BKN
20:29 -8.5 °C -17.6 °C 34520.3 hPa Calm     33 % 0 mm 25.0 W/m2 BKN
20:34 -8.5 °C -17.6 °C 34520.3 hPa Calm     33 % 0 mm 18.0 W/m2 BKN
20:39 -8.6 °C -17.4 °C 34533.8 hPa Calm     34 % 0 mm 14.0 W/m2 BKN
20:44 -8.7 °C -17.3 °C 34533.8 hPa Calm     35 % 0 mm 11.0 W/m2 BKN
20:49 -8.8 °C -17.2 °C 34533.8 hPa Calm     36 % 0 mm 7.0 W/m2 BKN
20:54 -8.9 °C -17.3 °C 34533.8 hPa Calm     36 % 0 mm 5.0 W/m2 OVC
20:59 -9.1 °C -17.2 °C 34533.8 hPa Calm     37 % 0 mm 0.0 W/m2 OVC
21:04 -9.2 °C -17.2 °C 34533.8 hPa Calm     38 % 0 mm 0.0 W/m2 CLR
21:09 -9.3 °C -17.1 °C 34533.8 hPa Calm     39 % 0 mm 0.0 W/m2 CLR
21:14 -9.5 °C -17.4 °C 34544 hPa Calm     38 % 0 mm 0.0 W/m2 CLR
21:19 -9.6 °C -17.1 °C 34544 hPa Calm     40 % 0 mm 0.0 W/m2 CLR
21:24 -9.8 °C -16.9 °C 34544 hPa Calm     42 % 0 mm 0.0 W/m2 CLR
21:29 -10 °C -17.1 °C 34544 hPa Calm     42 % 0 mm 0.0 W/m2 CLR
21:34 -10.2 °C -16.5 °C 34544 hPa Calm     46 % 0 mm 0.0 W/m2 CLR
21:39 -10.4 °C -16.3 °C 34554.1 hPa Calm     48 % 0 mm 0.0 W/m2 CLR
21:44 -10.6 °C -16.3 °C 34554.1 hPa Calm     50 % 0 mm 0.0 W/m2 CLR
21:49 -10.9 °C -16.3 °C 34554.1 hPa Calm     51 % 0 mm 0.0 W/m2 CLR
21:54 -11 °C -16.3 °C 34554.1 hPa Calm     52 % 0 mm 0.0 W/m2 CLR
21:59 -11.1 °C -16.4 °C 34554.1 hPa Calm     52 % 0 mm 0.0 W/m2 CLR
22:04 -11.2 °C -16.5 °C 34554.1 hPa Calm     52 % 0 mm 0.0 W/m2 CLR
22:09 -11.2 °C -16.4 °C 34554.1 hPa Calm     53 % 0 mm 0.0 W/m2 CLR
22:14 -11.3 °C -16.3 °C 34567.7 hPa Calm     54 % 0 mm 0.0 W/m2 CLR
22:19 -11.5 °C -16.3 °C 34567.7 hPa Calm     55 % 0 mm 0.0 W/m2 CLR
22:24 -11.6 °C -16.3 °C 34567.7 hPa Calm     56 % 0 mm 0.0 W/m2 CLR
22:29 -11.7 °C -16.4 °C 34567.7 hPa Calm     56 % 0 mm 0.0 W/m2 CLR
22:34 -11.8 °C -16.3 °C 34567.7 hPa Calm     57 % 0 mm 0.0 W/m2 CLR
22:39 -11.9 °C -16.4 °C 34567.7 hPa Calm     57 % 0 mm 0.0 W/m2 CLR
22:44 -12 °C -16.3 °C 34577.8 hPa Calm     59 % 0 mm 0.0 W/m2 CLR
22:49 -12.1 °C -16.4 °C 34577.8 hPa Calm     59 % 0 mm 0.0 W/m2 CLR
22:54 -12.3 °C -16.3 °C 34577.8 hPa Calm     60 % 0 mm 0.0 W/m2 CLR
22:59 -12.4 °C -16.3 °C 34577.8 hPa Calm     61 % 0 mm 0.0 W/m2 CLR
23:04 -12.4 °C -16.4 °C 34577.8 hPa Calm     61 % 0 mm 0.0 W/m2 CLR
23:09 -12.4 °C -16.4 °C 34577.8 hPa Calm     61 % 0 mm 0.0 W/m2 CLR
23:14 -12.5 °C -16.3 °C 34591.4 hPa Calm     62 % 0 mm 0.0 W/m2 CLR
23:19 -12.6 °C -16.4 °C 34591.4 hPa Calm     62 % 0 mm 0.0 W/m2 CLR
23:24 -12.7 °C -16.4 °C 34591.4 hPa Calm     63 % 0 mm 0.0 W/m2 CLR
23:29 -12.8 °C -16.5 °C 34591.4 hPa Calm     63 % 0 mm 0.0 W/m2 CLR
23:34 -12.8 °C -16.4 °C 34577.8 hPa Calm     64 % 0 mm 0.0 W/m2 CLR
23:39 -12.8 °C -16.4 °C 34577.8 hPa Calm     64 % 0 mm 0.0 W/m2 CLR
23:44 -12.9 °C -16.3 °C 34591.4 hPa Calm     65 % 0 mm 0.0 W/m2 CLR
23:49 -12.9 °C -16.4 °C 34591.4 hPa Calm     65 % 0 mm 0.0 W/m2 CLR
23:54 -13.1 °C -16.5 °C 34577.8 hPa Calm     65 % 0 mm 0.0 W/m2 CLR
23:59 -13.1 °C -16.4 °C 34577.8 hPa Calm     66 % 0 mm 0.0 W/m2 CLR
Lo Temps de Massalio
Compliments of Weather Underground - 1.25 mb